Time;durP1;ratioP1;P1;durP2;ratioP2;P2;SDS_P1;SDS_P2;PMS_P1;PMS_P2;Temp;Humidity;BMP_temperature;BMP_pressure;BME280_temperature;BME280_humidity;BME280_pressure;Samples;Min_cycle;Max_cycle;Signal;HPM_P1;HPM_P2
2022/04/06 07:01:45;;;;;;;4.53;3.22;;;12.00;67.40;;;;;;1955416;73;25496;-48
2022/04/06 07:04:14;;;;;;;4.75;2.92;;;12.10;68.20;;;;;;1894947;74;21044;-48
2022/04/06 07:06:44;;;;;;;3.83;2.02;;;12.30;66.80;;;;;;1890880;75;21020;-49
2022/04/06 07:09:13;;;;;;;2.40;2.00;;;12.40;66.50;;;;;;1905088;75;21006;-49
2022/04/06 07:11:43;;;;;;;5.15;2.30;;;12.50;65.50;;;;;;1918322;75;20997;-48
2022/04/06 07:14:12;;;;;;;3.22;2.58;;;12.40;64.10;;;;;;1918262;75;21022;-48
2022/04/06 07:16:41;;;;;;;5.00;3.00;;;12.30;65.10;;;;;;1904236;75;21001;-48
2022/04/06 07:19:11;;;;;;;6.17;3.08;;;12.20;65.40;;;;;;1903940;75;21020;-49
2022/04/06 07:21:40;;;;;;;4.17;2.10;;;12.20;65.60;;;;;;1886767;75;21000;-49
2022/04/06 07:24:10;;;;;;;2.52;2.15;;;12.20;65.00;;;;;;1901036;75;21488;-48
2022/04/06 07:26:39;;;;;;;6.08;2.25;;;12.20;64.80;;;;;;1885656;76;21045;-50
2022/04/06 07:29:11;;;;;;;4.30;2.17;;;12.10;64.70;;;;;;1885462;75;21165;-49
2022/04/06 07:31:40;;;;;;;5.47;2.35;;;12.00;64.80;;;;;;1886452;75;21082;-48
2022/04/06 07:34:09;;;;;;;13.28;2.90;;;12.00;65.10;;;;;;1887052;75;21147;-49
2022/04/06 07:36:39;;;;;;;5.17;2.25;;;12.00;65.20;;;;;;1885439;76;21032;-48
2022/04/06 07:39:08;;;;;;;8.30;4.08;;;12.10;65.20;;;;;;1885531;76;21099;-48
2022/04/06 07:41:37;;;;;;;2.50;2.30;;;12.20;64.90;;;;;;1886946;75;21125;-48
2022/04/06 07:44:07;;;;;;;3.67;2.02;;;12.30;64.70;;;;;;1892361;75;21131;-48
2022/04/06 07:46:36;;;;;;;3.15;1.85;;;12.40;64.20;;;;;;1901400;75;21055;-48
2022/04/06 07:49:07;;;;;;;4.25;3.02;;;12.50;63.70;;;;;;1885412;76;21025;-49
2022/04/06 07:51:37;;;;;;;6.10;2.62;;;12.60;63.40;;;;;;1904612;75;21034;-49
2022/04/06 07:54:06;;;;;;;2.77;2.37;;;12.70;63.30;;;;;;1911903;73;21015;-53
2022/04/06 07:56:37;;;;;;;3.00;2.17;;;12.80;62.60;;;;;;1917759;73;21110;-49
2022/04/06 07:59:06;;;;;;;2.80;2.30;;;12.90;62.10;;;;;;1901779;75;21069;-53
2022/04/06 08:01:35;;;;;;;3.30;2.12;;;13.00;61.50;;;;;;1899402;75;21109;-47
2022/04/06 08:04:05;;;;;;;2.92;2.40;;;13.00;61.80;;;;;;1896517;75;21494;-49
2022/04/06 08:06:34;;;;;;;2.30;2.10;;;13.10;62.20;;;;;;1897106;74;21085;-48
2022/04/06 08:09:06;;;;;;;6.75;2.30;;;13.20;61.10;;;;;;1899476;75;21065;-48
2022/04/06 08:11:35;;;;;;;6.25;2.22;;;13.20;60.60;;;;;;1898471;75;21129;-53
2022/04/06 08:14:04;;;;;;;3.12;1.90;;;13.30;60.50;;;;;;1895565;75;21075;-48
2022/04/06 08:16:33;;;;;;;5.22;2.20;;;13.30;58.20;;;;;;1894425;75;21138;-49
2022/04/06 08:19:03;;;;;;;2.17;1.82;;;13.50;59.70;;;;;;1898867;75;21136;-48
2022/04/06 08:21:49;;;;;;;2.55;1.87;;;13.60;59.40;;;;;;1897241;75;20996;-48
2022/04/06 08:24:23;;;;;;;4.78;2.37;;;13.60;59.10;;;;;;1856553;75;21152;-47
2022/04/06 08:26:52;;;;;;;8.30;3.70;;;13.60;58.70;;;;;;1901514;75;21019;-45
2022/04/06 08:29:27;;;;;;;19.17;8.08;;;13.50;58.70;;;;;;1894270;75;21527;-47
2022/04/06 08:32:19;;;;;;;8.55;3.17;;;13.50;59.40;;;;;;1889346;75;21040;-46
2022/04/06 08:35:08;;;;;;;2.72;2.42;;;13.60;59.80;;;;;;1879736;76;21103;-49
2022/04/06 08:37:51;;;;;;;6.35;2.98;;;13.70;60.10;;;;;;1880388;76;21150;-49
2022/04/06 11:27:41;;;;;;;5.30;3.52;;;15.90;42.60;;;;;;1959022;73;26174;-48
2022/04/06 11:30:16;;;;;;;6.85;3.47;;;15.90;46.60;;;;;;1918279;75;21023;-49
2022/04/06 11:32:56;;;;;;;4.90;3.60;;;16.00;46.20;;;;;;1918564;75;21022;-51
2022/04/06 11:35:36;;;;;;;15.28;4.72;;;16.10;44.90;;;;;;1918219;75;21021;-49
2022/04/06 12:58:47;;;;;;;9.33;7.53;;;16.40;38.50;;;;;;1973776;73;26992;-49
2022/04/06 13:01:17;;;;;;;11.63;5.35;;;16.40;39.40;;;;;;1949095;73;21465;-49
